createdAt,value
2022-11-19T00:01:34.395Z,60.14
2022-11-19T00:04:02.226Z,59.80
2022-11-19T00:06:31.392Z,60.02
2022-11-19T00:08:59.268Z,59.75
2022-11-19T00:11:46.128Z,59.80
2022-11-19T00:14:14.624Z,60.12
2022-11-19T00:16:43.689Z,59.80
2022-11-19T00:19:11.577Z,59.81
2022-11-19T00:21:40.831Z,60.28
2022-11-19T00:24:09.277Z,60.09
2022-11-19T00:26:37.123Z,59.84
2022-11-19T00:29:04.893Z,59.82
2022-11-19T00:31:32.787Z,59.70
2022-11-19T00:34:00.666Z,59.20
2022-11-19T00:36:28.501Z,59.46
2022-11-19T00:38:57.888Z,59.72
2022-11-19T00:41:25.888Z,59.80
2022-11-19T00:43:53.722Z,59.69
2022-11-19T00:46:22.267Z,59.44
2022-11-19T00:48:50.767Z,59.43
2022-11-19T00:51:19.454Z,59.23
2022-11-19T00:53:47.363Z,59.11
2022-11-19T00:56:17.466Z,60.10
2022-11-19T00:58:45.288Z,59.52
2022-11-19T01:01:13.699Z,59.52
2022-11-19T01:03:41.906Z,59.56
2022-11-19T01:06:09.906Z,59.60
2022-11-19T01:11:07.624Z,59.59
2022-11-19T01:13:42.913Z,59.85
2022-11-19T01:16:13.645Z,59.38
2022-11-19T01:18:43.247Z,58.96
2022-11-19T01:21:12.085Z,59.08
2022-11-19T01:23:40.020Z,59.09
2022-11-19T01:26:08.220Z,59.20
2022-11-19T01:28:36.027Z,59.54
2022-11-19T01:31:09.091Z,59.81
2022-11-19T01:33:37.666Z,58.92
2022-11-19T01:36:17.266Z,59.21
2022-11-19T01:38:50.722Z,58.73
2022-11-19T01:41:18.957Z,59.52
2022-11-19T01:43:47.803Z,58.68
2022-11-19T01:46:19.953Z,58.97
2022-11-19T01:48:58.470Z,59.35
2022-11-19T01:51:27.146Z,59.02
2022-11-19T01:55:03.513Z,59.78
2022-11-19T01:57:31.372Z,59.51
2022-11-19T02:00:02.268Z,58.99
2022-11-19T02:06:16.610Z,59.15
2022-11-19T02:08:45.361Z,59.29
2022-11-19T02:11:28.094Z,58.25
2022-11-19T02:14:04.154Z,58.94
2022-11-19T02:16:37.669Z,58.95
2022-11-19T02:19:52.478Z,58.49
2022-11-19T02:25:21.027Z,58.24
2022-11-19T02:28:22.648Z,57.78
2022-11-19T02:31:02.122Z,57.15
2022-11-19T02:33:30.907Z,57.99
2022-11-19T02:36:02.278Z,57.35
2022-11-19T02:38:32.001Z,58.05
2022-11-19T02:41:00.624Z,58.04
2022-11-19T02:43:33.238Z,58.05
2022-11-19T02:46:07.272Z,57.75
2022-11-19T02:48:36.853Z,58.11
2022-11-19T02:51:04.997Z,58.24
2022-11-19T02:53:32.637Z,57.98
2022-11-19T02:56:14.277Z,57.81
2022-11-19T02:59:01.019Z,58.05
2022-11-19T03:01:48.113Z,57.93
2022-11-19T03:04:30.744Z,58.37
2022-11-19T03:06:58.810Z,57.64
2022-11-19T03:09:26.559Z,57.93
2022-11-19T03:11:58.514Z,57.80
2022-11-19T03:14:45.052Z,57.35
2022-11-19T03:17:16.519Z,57.63
2022-11-19T03:19:45.528Z,58.27
2022-11-19T03:22:16.749Z,57.49
2022-11-19T03:24:45.554Z,57.62
2022-11-19T03:27:14.620Z,57.61
2022-11-19T03:29:44.110Z,57.52
2022-11-19T03:32:14.240Z,58.38
2022-11-19T03:34:41.961Z,57.66
2022-11-19T03:37:13.923Z,57.86
2022-11-19T03:39:41.650Z,57.53
2022-11-19T03:42:12.390Z,57.50
2022-11-19T03:44:41.886Z,57.48
2022-11-19T03:47:12.804Z,57.98
2022-11-19T03:49:44.002Z,57.65
2022-11-19T03:52:15.747Z,57.84
2022-11-19T03:54:43.441Z,57.63
2022-11-19T03:57:13.105Z,57.82
2022-11-19T03:59:40.981Z,57.61
2022-11-19T04:02:15.382Z,57.47
2022-11-19T04:04:44.423Z,57.98
2022-11-19T04:07:13.369Z,57.71
2022-11-19T04:09:41.468Z,57.84
2022-11-19T04:12:10.511Z,57.86
2022-11-19T04:14:39.216Z,57.60
2022-11-19T04:17:06.991Z,57.98
2022-11-19T04:19:34.796Z,57.98
2022-11-19T04:22:06.106Z,57.65
2022-11-19T04:24:34.989Z,58.31
2022-11-19T04:30:06.470Z,58.02
2022-11-19T04:33:14.075Z,58.09
2022-11-19T04:36:10.131Z,58.17
2022-11-19T04:49:08.251Z,57.94
2022-11-19T04:52:07.094Z,57.51
2022-11-19T04:58:43.200Z,57.64
2022-11-19T05:01:24.114Z,57.99
2022-11-19T05:05:03.234Z,57.70
2022-11-19T05:08:04.849Z,57.31
2022-11-19T05:10:52.542Z,57.14
2022-11-19T05:13:37.914Z,57.52
2022-11-19T05:16:26.324Z,57.80
2022-11-19T05:19:18.573Z,57.68
2022-11-19T05:26:12.770Z,57.54
2022-11-19T05:32:19.460Z,58.03
2022-11-19T05:34:47.530Z,57.90
2022-11-19T05:37:16.171Z,57.79
2022-11-19T05:39:45.534Z,57.68
2022-11-19T05:42:14.719Z,57.17
2022-11-19T05:44:43.410Z,57.77
2022-11-19T05:47:12.131Z,57.56
2022-11-19T05:49:42.405Z,57.63
2022-11-19T05:52:11.299Z,57.73
2022-11-19T05:54:40.031Z,57.74
2022-11-19T06:05:26.669Z,57.35
2022-11-19T07:12:11.828Z,56.20
2022-11-19T07:14:39.773Z,55.87
2022-11-19T07:17:07.613Z,56.22
2022-11-19T07:19:35.520Z,56.28
2022-11-19T07:22:03.505Z,55.84
2022-11-19T07:24:31.389Z,56.17
2022-11-19T07:26:59.351Z,56.11
2022-11-19T07:29:28.437Z,56.52
2022-11-19T07:31:56.403Z,56.24
2022-11-19T07:34:24.375Z,56.43
2022-11-19T07:36:52.789Z,55.72
2022-11-19T07:39:29.845Z,55.71
2022-11-19T07:42:15.782Z,55.45
2022-11-19T07:44:45.302Z,55.41
2022-11-19T07:47:13.362Z,55.54
2022-11-19T07:49:41.655Z,55.37
2022-11-19T07:52:14.397Z,55.47
2022-11-19T07:54:42.880Z,55.06
2022-11-19T07:57:35.472Z,55.52
2022-11-19T08:00:44.204Z,55.11
2022-11-19T08:03:12.307Z,55.75
2022-11-19T08:05:50.302Z,55.47
2022-11-19T08:08:18.201Z,55.70
2022-11-19T08:10:48.903Z,55.10
2022-11-19T08:13:16.742Z,55.44
2022-11-19T08:15:47.803Z,55.30
2022-11-19T08:18:18.931Z,55.17
2022-11-19T08:20:52.247Z,55.36
2022-11-19T08:23:29.821Z,55.28
2022-11-19T08:25:58.213Z,55.10
2022-11-19T08:28:28.516Z,55.12
2022-11-19T08:30:58.335Z,54.97
2022-11-19T08:33:31.281Z,55.13
2022-11-19T08:36:01.996Z,55.11
2022-11-19T08:38:37.267Z,54.82
2022-11-19T08:41:25.587Z,54.35
2022-11-19T08:44:03.900Z,54.79
2022-11-19T08:46:33.169Z,54.80
2022-11-19T08:49:20.405Z,54.46
2022-11-19T08:52:21.748Z,54.25
2022-11-19T08:54:50.105Z,54.39
2022-11-19T08:57:34.845Z,54.73
2022-11-19T09:00:06.487Z,54.65
2022-11-19T09:03:14.875Z,54.14
2022-11-19T09:05:49.518Z,53.59
2022-11-19T09:12:27.244Z,53.94
2022-11-19T09:15:36.330Z,53.74
2022-11-19T09:18:34.830Z,53.78
2022-11-19T09:21:04.450Z,53.64
2022-11-19T09:23:34.636Z,53.26
2022-11-19T09:26:20.508Z,53.10
2022-11-19T09:28:57.311Z,53.16
2022-11-19T09:31:28.122Z,52.95
2022-11-19T09:34:09.249Z,52.64
2022-11-19T09:40:34.376Z,53.20
2022-11-19T09:43:15.200Z,52.87
2022-11-19T09:45:53.022Z,52.59
2022-11-19T09:48:28.019Z,53.20
2022-11-19T09:51:04.081Z,52.84
2022-11-19T09:53:34.563Z,52.72
2022-11-19T09:56:07.645Z,52.93
2022-11-19T09:58:39.806Z,53.32
2022-11-19T10:01:33.255Z,53.18
2022-11-19T10:04:02.168Z,52.87
2022-11-19T10:06:44.090Z,53.48
2022-11-19T10:09:38.574Z,53.78
2022-11-19T10:12:42.257Z,53.65
2022-11-19T10:15:37.182Z,53.04
2022-11-19T10:18:16.908Z,53.96
2022-11-19T10:21:03.758Z,54.00
2022-11-19T10:23:46.293Z,54.36
2022-11-19T10:26:20.050Z,54.23
2022-11-19T10:29:18.466Z,54.08
2022-11-19T10:31:56.425Z,54.10
2022-11-19T10:34:30.244Z,54.14
2022-11-19T10:37:03.045Z,53.89
2022-11-19T10:39:44.723Z,53.65
2022-11-19T10:42:26.288Z,54.15
2022-11-19T10:45:17.975Z,54.12
2022-11-19T10:48:08.856Z,54.31
2022-11-19T10:50:44.991Z,54.44
2022-11-19T10:53:21.104Z,54.32
2022-11-19T10:55:57.402Z,53.81
2022-11-19T10:58:32.090Z,54.12
2022-11-19T11:01:01.261Z,53.71
2022-11-19T11:03:32.558Z,53.74
2022-11-19T11:06:02.037Z,54.62
2022-11-19T11:08:31.296Z,53.78
2022-11-19T11:11:00.826Z,53.40
2022-11-19T11:13:56.138Z,53.98
2022-11-19T11:16:24.950Z,54.26
2022-11-19T11:18:53.652Z,54.26
2022-11-19T11:21:40.622Z,53.93
2022-11-19T11:24:08.632Z,54.27
2022-11-19T11:26:38.200Z,54.20
2022-11-19T11:29:08.695Z,54.08
2022-11-19T11:31:38.605Z,53.93
2022-11-19T11:34:07.125Z,53.90
2022-11-19T11:36:36.623Z,54.29
2022-11-19T11:39:05.135Z,53.38
2022-11-19T11:44:38.362Z,53.75
2022-11-19T11:47:14.056Z,53.41
2022-11-19T11:49:42.754Z,53.43
2022-11-19T11:52:21.055Z,53.59
2022-11-19T11:54:56.816Z,53.31
2022-11-19T11:57:27.514Z,53.25
2022-11-19T11:59:55.415Z,53.05
2022-11-19T12:02:27.143Z,53.54
2022-11-19T12:04:55.278Z,53.65
2022-11-19T12:07:53.701Z,52.87
2022-11-19T12:10:27.700Z,52.71
2022-11-19T12:13:07.268Z,53.40
2022-11-19T12:15:41.306Z,52.60
2022-11-19T12:18:12.037Z,51.97
2022-11-19T12:20:41.780Z,51.92
2022-11-19T12:23:17.418Z,52.20
2022-11-19T12:25:49.709Z,52.47
2022-11-19T12:28:31.997Z,51.75
2022-11-19T12:31:06.008Z,51.81
2022-11-19T12:33:41.139Z,52.41
2022-11-19T12:36:13.011Z,51.40
2022-11-19T12:38:45.582Z,51.47
2022-11-19T12:41:27.956Z,50.71
2022-11-19T12:43:58.139Z,51.33
2022-11-19T12:46:39.093Z,51.41
2022-11-19T12:49:36.424Z,50.69
2022-11-19T12:52:08.852Z,51.44
2022-11-19T12:54:45.088Z,50.30
2022-11-19T12:57:25.468Z,51.06
2022-11-19T13:00:05.879Z,50.57
2022-11-19T13:02:38.151Z,51.40
2022-11-19T13:05:09.548Z,50.36
2022-11-19T13:07:38.765Z,50.19
2022-11-19T13:10:13.545Z,50.44
2022-11-19T13:12:43.996Z,50.52
2022-11-19T13:15:18.070Z,50.48
2022-11-19T13:17:46.485Z,50.14
2022-11-19T13:20:21.804Z,50.02
2022-11-19T13:22:49.644Z,49.19
2022-11-19T13:25:19.508Z,49.88
2022-11-19T13:27:50.353Z,49.47
2022-11-19T13:30:20.939Z,49.96
2022-11-19T13:32:52.480Z,49.30
2022-11-19T13:35:21.640Z,49.52
2022-11-19T13:37:58.253Z,49.46
2022-11-19T13:40:28.151Z,49.48
2022-11-19T13:46:07.056Z,48.82
2022-11-19T13:48:35.739Z,48.85
2022-11-19T13:51:04.395Z,48.78
2022-11-19T13:53:33.738Z,48.59
2022-11-19T13:56:01.626Z,48.47
2022-11-19T13:58:33.386Z,48.54
2022-11-19T14:01:31.716Z,48.82
2022-11-19T14:04:15.979Z,48.89
2022-11-19T14:07:09.811Z,48.83
2022-11-19T14:09:39.257Z,48.83
2022-11-19T14:12:26.532Z,48.50
2022-11-19T14:15:19.435Z,49.43
2022-11-19T14:18:08.157Z,47.97
2022-11-19T14:20:55.761Z,48.09
2022-11-19T14:24:00.748Z,47.77
2022-11-19T14:27:03.634Z,47.30
2022-11-19T14:29:54.056Z,47.46
2022-11-19T14:32:30.737Z,47.87
2022-11-19T14:35:42.367Z,47.64
2022-11-19T14:38:35.910Z,47.35
2022-11-19T14:41:22.765Z,47.96
2022-11-19T14:44:12.951Z,46.92
2022-11-19T14:46:42.301Z,47.84
2022-11-19T14:49:33.119Z,47.41
2022-11-19T14:52:02.657Z,47.61
2022-11-19T14:54:36.507Z,47.75
2022-11-19T14:57:07.221Z,48.07
2022-11-19T14:59:37.486Z,47.58
2022-11-19T15:02:13.074Z,47.92
2022-11-19T15:04:42.977Z,47.68
2022-11-19T15:07:13.096Z,47.26
2022-11-19T15:10:24.940Z,46.64
2022-11-19T15:13:03.607Z,46.59
2022-11-19T15:15:36.965Z,46.32
2022-11-19T15:18:25.448Z,45.96
2022-11-19T15:21:03.292Z,46.43
2022-11-19T15:23:35.233Z,46.36
2022-11-19T15:26:10.676Z,46.60
2022-11-19T15:28:43.698Z,46.97
2022-11-19T15:31:25.410Z,46.68
2022-11-19T15:34:15.194Z,46.42
2022-11-19T15:36:43.841Z,46.88
2022-11-19T15:39:16.427Z,46.66
2022-11-19T15:42:00.256Z,46.90
2022-11-19T15:44:29.884Z,46.69
2022-11-19T15:46:58.999Z,46.56
2022-11-19T15:49:27.956Z,46.28
2022-11-19T15:52:00.282Z,46.68
2022-11-19T15:54:30.466Z,46.72
2022-11-19T15:56:59.460Z,47.09
2022-11-19T15:59:27.617Z,46.63
2022-11-19T16:02:00.232Z,46.77
2022-11-19T16:04:32.546Z,46.75
2022-11-19T16:07:00.491Z,46.79
2022-11-19T16:09:30.077Z,46.49
2022-11-19T16:12:15.633Z,46.39
2022-11-19T16:15:07.370Z,46.80
2022-11-19T16:17:43.895Z,45.51
2022-11-19T16:20:21.331Z,46.25
2022-11-19T16:22:52.384Z,46.49
2022-11-19T16:25:31.124Z,45.75
2022-11-19T16:28:05.769Z,46.12
2022-11-19T16:30:40.880Z,46.10
2022-11-19T16:33:14.008Z,46.12
2022-11-19T16:35:43.345Z,46.15
2022-11-19T16:38:15.529Z,46.03
2022-11-19T16:41:02.703Z,46.23
2022-11-19T16:43:30.597Z,46.55
2022-11-19T16:45:58.392Z,46.29
2022-11-19T16:48:55.105Z,45.90
2022-11-19T16:51:36.855Z,46.06
2022-11-19T16:54:05.635Z,46.74
2022-11-19T16:56:36.502Z,46.79
2022-11-19T16:59:05.428Z,46.78
2022-11-19T17:01:33.295Z,46.45
2022-11-19T17:04:03.540Z,46.84
2022-11-19T17:06:32.652Z,46.52
2022-11-19T17:09:01.260Z,46.66
2022-11-19T17:12:08.635Z,46.48
2022-11-19T17:14:48.189Z,46.50
2022-11-19T17:17:26.749Z,46.74
2022-11-19T17:19:56.380Z,46.60
2022-11-19T17:22:24.872Z,46.56
2022-11-19T17:24:52.950Z,47.04
2022-11-19T17:27:26.719Z,47.55
2022-11-19T17:29:56.946Z,47.01
2022-11-19T17:32:24.856Z,47.48
2022-11-19T17:34:55.261Z,47.03
2022-11-19T17:37:23.089Z,47.35
2022-11-19T17:39:51.066Z,47.45
2022-11-19T17:42:36.600Z,47.10
2022-11-19T17:45:10.824Z,47.21
2022-11-19T17:47:39.068Z,47.31
2022-11-19T17:50:08.001Z,47.09
2022-11-19T17:52:35.854Z,47.28
2022-11-19T17:55:11.423Z,47.25
2022-11-19T17:57:42.491Z,47.42
2022-11-19T18:00:13.281Z,46.86
2022-11-19T18:02:41.169Z,46.97
2022-11-19T18:05:14.575Z,47.52
2022-11-19T18:07:42.547Z,46.87
2022-11-19T18:10:10.714Z,47.29
2022-11-19T18:12:38.590Z,47.39
2022-11-19T18:15:07.223Z,47.64
2022-11-19T18:17:36.428Z,47.85
2022-11-19T18:20:04.619Z,48.16
2022-11-19T18:22:32.542Z,48.53
2022-11-19T18:25:00.650Z,48.33
2022-11-19T18:27:28.468Z,48.32
2022-11-19T18:29:56.672Z,48.92
2022-11-19T18:32:24.583Z,48.98
2022-11-19T18:34:57.935Z,49.12
2022-11-19T18:37:29.285Z,49.23
2022-11-19T18:39:57.377Z,49.19
2022-11-19T18:42:29.697Z,48.84
2022-11-19T18:44:56.478Z,49.23
2022-11-19T18:47:26.334Z,49.36
2022-11-19T18:49:55.973Z,49.40
2022-11-19T18:52:24.191Z,49.34
2022-11-19T18:54:52.239Z,49.06
2022-11-19T18:57:20.128Z,48.98
2022-11-19T18:59:48.109Z,49.56
2022-11-19T19:02:17.157Z,49.62
2022-11-19T19:04:50.869Z,49.42
2022-11-19T19:07:20.507Z,49.60
2022-11-19T19:09:48.386Z,49.38
2022-11-19T19:12:18.181Z,49.44
2022-11-19T19:14:47.083Z,49.67
2022-11-19T19:17:15.495Z,49.23
2022-11-19T19:19:43.305Z,49.46
2022-11-19T19:22:11.068Z,49.54
2022-11-19T19:24:40.628Z,49.20
2022-11-19T19:27:08.497Z,49.21
2022-11-19T19:29:36.724Z,49.13
2022-11-19T19:32:04.765Z,49.84
2022-11-19T19:34:32.731Z,49.43
2022-11-19T19:37:00.612Z,49.55
2022-11-19T19:39:28.582Z,49.48
2022-11-19T19:41:57.991Z,49.02
2022-11-19T19:44:25.839Z,49.72
2022-11-19T19:46:53.828Z,49.74
2022-11-19T19:49:22.369Z,49.52
2022-11-19T19:51:50.879Z,50.11
2022-11-19T19:54:18.716Z,50.24
2022-11-19T19:56:46.677Z,49.97
2022-11-19T19:59:16.201Z,49.61
2022-11-19T20:01:45.269Z,50.35
2022-11-19T20:04:13.238Z,50.25
2022-11-19T20:06:42.349Z,49.71
2022-11-19T20:09:10.311Z,50.42
2022-11-19T20:11:38.886Z,50.10
2022-11-19T20:14:06.966Z,50.32
2022-11-19T20:16:36.368Z,50.18
2022-11-19T20:19:04.267Z,50.54
2022-11-19T20:21:34.052Z,50.66
2022-11-19T20:24:04.878Z,50.62
2022-11-19T20:26:35.281Z,51.08
2022-11-19T20:29:04.103Z,50.81
2022-11-19T20:31:32.020Z,50.70
2022-11-19T20:34:01.923Z,50.73
2022-11-19T20:36:31.183Z,51.31
2022-11-19T20:38:59.164Z,51.25
2022-11-19T20:41:44.557Z,50.63
2022-11-19T20:44:22.206Z,51.24
2022-11-19T20:46:51.306Z,50.33
2022-11-19T20:49:21.678Z,50.69
2022-11-19T20:51:49.674Z,51.18
2022-11-19T20:54:17.767Z,51.55
2022-11-19T20:56:45.889Z,51.21
2022-11-19T20:59:14.080Z,51.30
2022-11-19T21:01:42.715Z,51.06
2022-11-19T21:04:11.754Z,51.30
2022-11-19T21:06:41.417Z,51.30
2022-11-19T21:09:10.004Z,51.07
2022-11-19T21:11:37.945Z,51.17
2022-11-19T21:14:06.334Z,50.97
2022-11-19T21:16:34.638Z,51.21
2022-11-19T21:19:03.386Z,51.00
2022-11-19T21:21:31.716Z,51.19
2022-11-19T21:24:01.596Z,50.62
2022-11-19T21:26:29.733Z,51.20
2022-11-19T21:28:59.182Z,51.45
2022-11-19T21:31:38.483Z,51.68
2022-11-19T21:34:07.882Z,51.60
2022-11-19T21:36:35.882Z,52.10
2022-11-19T21:39:05.611Z,52.13
2022-11-19T21:41:33.533Z,52.03
2022-11-19T21:44:01.807Z,52.18
2022-11-19T21:46:29.881Z,52.01
2022-11-19T21:48:57.812Z,52.22
2022-11-19T21:51:25.879Z,52.12
2022-11-19T21:53:55.214Z,52.12
2022-11-19T21:56:24.496Z,52.61
2022-11-19T21:58:52.899Z,51.92
2022-11-19T22:01:20.874Z,52.72
2022-11-19T22:03:48.820Z,52.24
2022-11-19T22:06:16.693Z,52.15
2022-11-19T22:08:44.537Z,52.42
2022-11-19T22:11:31.700Z,52.75
2022-11-19T22:14:02.789Z,52.71
2022-11-19T22:16:30.809Z,51.75
2022-11-19T22:18:58.644Z,52.32
2022-11-19T22:21:26.914Z,52.30
2022-11-19T22:23:54.790Z,52.12
2022-11-19T22:26:22.689Z,52.74
2022-11-19T22:28:50.611Z,52.32
2022-11-19T22:31:20.295Z,52.71
2022-11-19T22:33:51.527Z,52.50
2022-11-19T22:36:20.031Z,52.65
2022-11-19T22:38:48.152Z,52.70
2022-11-19T22:41:17.432Z,53.14
2022-11-19T22:43:45.504Z,52.57
2022-11-19T22:46:14.048Z,52.75
2022-11-19T22:48:43.184Z,53.15
2022-11-19T22:51:12.596Z,52.86
2022-11-19T22:53:40.417Z,52.73
2022-11-19T22:56:09.793Z,52.73
2022-11-19T22:58:37.775Z,52.08
2022-11-19T23:01:05.698Z,52.05
2022-11-19T23:03:33.677Z,52.21
2022-11-19T23:06:02.871Z,52.45
2022-11-19T23:08:30.963Z,52.50
2022-11-19T23:10:59.998Z,52.87
2022-11-19T23:13:31.922Z,52.48
2022-11-19T23:16:05.398Z,52.51
2022-11-19T23:18:34.245Z,52.63
2022-11-19T23:21:04.636Z,52.97
2022-11-19T23:23:35.004Z,52.88
2022-11-19T23:26:04.692Z,52.28
2022-11-19T23:28:32.942Z,52.15
2022-11-19T23:31:04.084Z,52.38
2022-11-19T23:33:31.978Z,51.83
2022-11-19T23:36:05.263Z,51.95
2022-11-19T23:38:33.126Z,52.23
2022-11-19T23:41:01.029Z,52.00
2022-11-19T23:43:36.263Z,52.51
2022-11-19T23:46:04.485Z,52.16
2022-11-19T23:48:32.556Z,52.10
2022-11-19T23:51:07.481Z,52.46
2022-11-19T23:53:35.661Z,52.11
2022-11-19T23:56:03.897Z,52.35
2022-11-19T23:58:31.654Z,52.50
